sensor_id;sensor_type;location;lat;lon;timestamp;P1;durP1;ratioP1;P2;durP2;ratioP2
58659;SDS011;44429;45.110;20.622;2022-09-23T00:00:07;4.35;;;1.38;;
58659;SDS011;44429;45.110;20.622;2022-09-23T00:02:33;4.13;;;1.33;;
58659;SDS011;44429;45.110;20.622;2022-09-23T00:04:59;3.92;;;1.42;;
58659;SDS011;44429;45.110;20.622;2022-09-23T00:07:25;4.10;;;1.38;;
58659;SDS011;44429;45.110;20.622;2022-09-23T00:09:51;6.38;;;1.70;;
58659;SDS011;44429;45.110;20.622;2022-09-23T00:12:19;4.55;;;1.33;;
58659;SDS011;44429;45.110;20.622;2022-09-23T00:14:45;4.72;;;1.65;;
58659;SDS011;44429;45.110;20.622;2022-09-23T00:17:11;3.63;;;1.00;;
58659;SDS011;44429;45.110;20.622;2022-09-23T00:19:38;3.85;;;1.25;;
58659;SDS011;44429;45.110;20.622;2022-09-23T00:22:04;8.35;;;1.10;;
58659;SDS011;44429;45.110;20.622;2022-09-23T00:24:31;4.72;;;1.40;;
58659;SDS011;44429;45.110;20.622;2022-09-23T00:26:58;5.38;;;1.83;;
58659;SDS011;44429;45.110;20.622;2022-09-23T00:29:24;4.43;;;1.58;;
58659;SDS011;44429;45.110;20.622;2022-09-23T00:31:51;3.40;;;1.20;;
58659;SDS011;44429;45.110;20.622;2022-09-23T00:34:17;3.92;;;1.48;;
58659;SDS011;44429;45.110;20.622;2022-09-23T00:36:43;4.30;;;1.65;;
58659;SDS011;44429;45.110;20.622;2022-09-23T00:39:09;4.85;;;1.50;;
58659;SDS011;44429;45.110;20.622;2022-09-23T00:41:35;4.43;;;1.35;;
58659;SDS011;44429;45.110;20.622;2022-09-23T00:44:37;4.38;;;1.27;;
58659;SDS011;44429;45.110;20.622;2022-09-23T00:46:48;3.83;;;1.27;;
58659;SDS011;44429;45.110;20.622;2022-09-23T00:49:15;4.43;;;1.98;;
58659;SDS011;44429;45.110;20.622;2022-09-23T00:51:49;3.92;;;1.65;;
58659;SDS011;44429;45.110;20.622;2022-09-23T00:54:18;2.65;;;0.95;;
58659;SDS011;44429;45.110;20.622;2022-09-23T00:56:45;3.63;;;1.33;;
58659;SDS011;44429;45.110;20.622;2022-09-23T00:59:12;4.97;;;1.55;;
58659;SDS011;44429;45.110;20.622;2022-09-23T01:01:38;7.80;;;1.50;;
58659;SDS011;44429;45.110;20.622;2022-09-23T01:04:05;4.45;;;1.05;;
58659;SDS011;44429;45.110;20.622;2022-09-23T01:06:31;4.63;;;1.38;;
58659;SDS011;44429;45.110;20.622;2022-09-23T01:08:58;3.38;;;0.98;;
58659;SDS011;44429;45.110;20.622;2022-09-23T01:11:45;3.47;;;1.27;;
58659;SDS011;44429;45.110;20.622;2022-09-23T01:14:20;9.57;;;2.00;;
58659;SDS011;44429;45.110;20.622;2022-09-23T01:30:04;5.47;;;1.65;;
58659;SDS011;44429;45.110;20.622;2022-09-23T01:38:02;3.08;;;1.27;;
58659;SDS011;44429;45.110;20.622;2022-09-23T01:43:12;7.28;;;2.10;;
58659;SDS011;44429;45.110;20.622;2022-09-23T01:45:41;4.20;;;1.48;;
58659;SDS011;44429;45.110;20.622;2022-09-23T01:48:16;4.07;;;1.45;;
58659;SDS011;44429;45.110;20.622;2022-09-23T01:50:54;3.65;;;1.15;;
58659;SDS011;44429;45.110;20.622;2022-09-23T01:55:55;4.50;;;1.60;;
58659;SDS011;44429;45.110;20.622;2022-09-23T02:00:59;3.58;;;1.23;;
58659;SDS011;44429;45.110;20.622;2022-09-23T02:03:27;6.15;;;1.52;;
58659;SDS011;44429;45.110;20.622;2022-09-23T02:06:16;3.05;;;1.02;;
58659;SDS011;44429;45.110;20.622;2022-09-23T02:08:52;4.43;;;1.48;;
58659;SDS011;44429;45.110;20.622;2022-09-23T02:11:20;4.30;;;1.65;;
58659;SDS011;44429;45.110;20.622;2022-09-23T02:13:49;3.33;;;1.30;;
58659;SDS011;44429;45.110;20.622;2022-09-23T02:18:53;6.22;;;1.70;;
58659;SDS011;44429;45.110;20.622;2022-09-23T02:21:21;3.92;;;1.35;;
58659;SDS011;44429;45.110;20.622;2022-09-23T02:23:51;7.88;;;1.70;;
58659;SDS011;44429;45.110;20.622;2022-09-23T02:28:48;4.22;;;1.27;;
58659;SDS011;44429;45.110;20.622;2022-09-23T02:31:18;3.50;;;1.25;;
58659;SDS011;44429;45.110;20.622;2022-09-23T02:33:52;4.03;;;1.43;;
58659;SDS011;44429;45.110;20.622;2022-09-23T02:36:29;5.93;;;1.88;;
58659;SDS011;44429;45.110;20.622;2022-09-23T02:38:58;5.05;;;1.83;;
58659;SDS011;44429;45.110;20.622;2022-09-23T02:41:27;5.70;;;1.95;;
58659;SDS011;44429;45.110;20.622;2022-09-23T02:44:09;2.80;;;0.88;;
58659;SDS011;44429;45.110;20.622;2022-09-23T02:46:36;3.60;;;1.50;;
58659;SDS011;44429;45.110;20.622;2022-09-23T02:49:13;3.35;;;1.00;;
58659;SDS011;44429;45.110;20.622;2022-09-23T02:51:41;3.90;;;1.30;;
58659;SDS011;44429;45.110;20.622;2022-09-23T02:54:09;4.10;;;1.35;;
58659;SDS011;44429;45.110;20.622;2022-09-23T02:56:38;6.00;;;1.88;;
58659;SDS011;44429;45.110;20.622;2022-09-23T02:59:04;4.25;;;1.88;;
58659;SDS011;44429;45.110;20.622;2022-09-23T03:04:15;4.95;;;1.65;;
58659;SDS011;44429;45.110;20.622;2022-09-23T03:09:21;5.68;;;1.98;;
58659;SDS011;44429;45.110;20.622;2022-09-23T03:11:51;4.07;;;1.25;;
58659;SDS011;44429;45.110;20.622;2022-09-23T03:24:24;4.45;;;1.50;;
58659;SDS011;44429;45.110;20.622;2022-09-23T03:26:52;6.72;;;2.45;;
58659;SDS011;44429;45.110;20.622;2022-09-23T03:29:18;3.97;;;1.50;;
58659;SDS011;44429;45.110;20.622;2022-09-23T03:31:45;4.28;;;1.73;;
58659;SDS011;44429;45.110;20.622;2022-09-23T03:34:13;3.80;;;1.75;;
58659;SDS011;44429;45.110;20.622;2022-09-23T03:36:42;3.58;;;1.02;;
58659;SDS011;44429;45.110;20.622;2022-09-23T03:39:21;2.75;;;0.75;;
58659;SDS011;44429;45.110;20.622;2022-09-23T03:41:49;5.33;;;2.00;;
58659;SDS011;44429;45.110;20.622;2022-09-23T03:44:17;5.10;;;1.70;;
58659;SDS011;44429;45.110;20.622;2022-09-23T03:46:43;6.10;;;1.88;;
58659;SDS011;44429;45.110;20.622;2022-09-23T03:49:17;4.97;;;1.63;;
58659;SDS011;44429;45.110;20.622;2022-09-23T03:51:44;4.38;;;1.40;;
58659;SDS011;44429;45.110;20.622;2022-09-23T03:54:10;5.22;;;1.83;;
58659;SDS011;44429;45.110;20.622;2022-09-23T03:56:36;3.97;;;1.63;;
58659;SDS011;44429;45.110;20.622;2022-09-23T03:59:02;5.15;;;1.52;;
58659;SDS011;44429;45.110;20.622;2022-09-23T04:01:28;4.30;;;1.92;;
58659;SDS011;44429;45.110;20.622;2022-09-23T04:03:54;6.47;;;1.83;;
58659;SDS011;44429;45.110;20.622;2022-09-23T04:06:20;4.10;;;1.73;;
58659;SDS011;44429;45.110;20.622;2022-09-23T04:08:46;5.68;;;1.25;;
58659;SDS011;44429;45.110;20.622;2022-09-23T04:11:13;5.65;;;1.90;;
58659;SDS011;44429;45.110;20.622;2022-09-23T04:13:39;5.93;;;1.67;;
58659;SDS011;44429;45.110;20.622;2022-09-23T04:16:05;4.32;;;1.70;;
58659;SDS011;44429;45.110;20.622;2022-09-23T04:18:31;4.28;;;1.67;;
58659;SDS011;44429;45.110;20.622;2022-09-23T04:20:58;4.63;;;1.33;;
58659;SDS011;44429;45.110;20.622;2022-09-23T04:23:27;3.75;;;1.70;;
58659;SDS011;44429;45.110;20.622;2022-09-23T04:25:53;3.55;;;1.23;;
58659;SDS011;44429;45.110;20.622;2022-09-23T04:28:20;6.38;;;2.15;;
58659;SDS011;44429;45.110;20.622;2022-09-23T04:30:46;5.50;;;1.33;;
58659;SDS011;44429;45.110;20.622;2022-09-23T04:33:13;5.57;;;2.42;;
58659;SDS011;44429;45.110;20.622;2022-09-23T04:35:39;5.60;;;1.80;;
58659;SDS011;44429;45.110;20.622;2022-09-23T04:38:08;7.95;;;2.47;;
58659;SDS011;44429;45.110;20.622;2022-09-23T04:40:35;4.03;;;1.85;;
58659;SDS011;44429;45.110;20.622;2022-09-23T04:43:01;6.30;;;2.10;;
58659;SDS011;44429;45.110;20.622;2022-09-23T04:45:27;5.95;;;1.83;;
58659;SDS011;44429;45.110;20.622;2022-09-23T04:47:54;4.30;;;1.23;;
58659;SDS011;44429;45.110;20.622;2022-09-23T04:50:23;5.20;;;1.98;;
58659;SDS011;44429;45.110;20.622;2022-09-23T04:52:49;5.63;;;2.20;;
58659;SDS011;44429;45.110;20.622;2022-09-23T04:55:16;5.68;;;1.60;;
58659;SDS011;44429;45.110;20.622;2022-09-23T04:57:42;5.20;;;1.40;;
58659;SDS011;44429;45.110;20.622;2022-09-23T05:00:08;5.43;;;1.60;;
58659;SDS011;44429;45.110;20.622;2022-09-23T05:02:46;5.13;;;1.50;;
58659;SDS011;44429;45.110;20.622;2022-09-23T05:05:13;5.97;;;2.08;;
58659;SDS011;44429;45.110;20.622;2022-09-23T05:10:11;5.10;;;1.75;;
58659;SDS011;44429;45.110;20.622;2022-09-23T05:12:37;6.20;;;2.17;;
58659;SDS011;44429;45.110;20.622;2022-09-23T05:15:03;4.88;;;1.88;;
58659;SDS011;44429;45.110;20.622;2022-09-23T05:17:29;3.70;;;1.55;;
58659;SDS011;44429;45.110;20.622;2022-09-23T05:19:56;5.80;;;2.10;;
58659;SDS011;44429;45.110;20.622;2022-09-23T05:22:22;3.85;;;1.75;;
58659;SDS011;44429;45.110;20.622;2022-09-23T05:24:50;5.00;;;1.52;;
58659;SDS011;44429;45.110;20.622;2022-09-23T05:27:16;2.88;;;1.25;;
58659;SDS011;44429;45.110;20.622;2022-09-23T05:29:42;5.13;;;1.70;;
58659;SDS011;44429;45.110;20.622;2022-09-23T05:32:09;4.57;;;1.63;;
58659;SDS011;44429;45.110;20.622;2022-09-23T05:34:35;4.85;;;1.33;;
58659;SDS011;44429;45.110;20.622;2022-09-23T05:37:01;6.72;;;2.60;;
58659;SDS011;44429;45.110;20.622;2022-09-23T05:39:27;4.00;;;1.17;;
58659;SDS011;44429;45.110;20.622;2022-09-23T05:41:53;3.20;;;1.40;;
58659;SDS011;44429;45.110;20.622;2022-09-23T05:44:19;5.40;;;1.67;;
58659;SDS011;44429;45.110;20.622;2022-09-23T05:46:45;6.00;;;2.35;;
58659;SDS011;44429;45.110;20.622;2022-09-23T05:49:12;2.35;;;0.90;;
58659;SDS011;44429;45.110;20.622;2022-09-23T05:51:38;5.35;;;2.03;;
58659;SDS011;44429;45.110;20.622;2022-09-23T05:54:04;6.78;;;1.70;;
58659;SDS011;44429;45.110;20.622;2022-09-23T05:56:31;5.32;;;1.92;;
58659;SDS011;44429;45.110;20.622;2022-09-23T05:58:58;4.85;;;1.60;;
58659;SDS011;44429;45.110;20.622;2022-09-23T06:01:25;3.58;;;1.10;;
58659;SDS011;44429;45.110;20.622;2022-09-23T06:03:53;4.28;;;1.55;;
58659;SDS011;44429;45.110;20.622;2022-09-23T06:06:20;3.25;;;1.15;;
58659;SDS011;44429;45.110;20.622;2022-09-23T06:08:50;3.58;;;1.02;;
58659;SDS011;44429;45.110;20.622;2022-09-23T06:11:16;4.25;;;1.42;;
58659;SDS011;44429;45.110;20.622;2022-09-23T06:13:42;6.55;;;2.03;;
58659;SDS011;44429;45.110;20.622;2022-09-23T06:16:09;4.93;;;1.73;;
58659;SDS011;44429;45.110;20.622;2022-09-23T06:18:39;4.53;;;1.10;;
58659;SDS011;44429;45.110;20.622;2022-09-23T06:21:06;3.38;;;1.13;;
58659;SDS011;44429;45.110;20.622;2022-09-23T06:23:32;5.70;;;1.70;;
58659;SDS011;44429;45.110;20.622;2022-09-23T06:26:03;4.00;;;1.35;;
58659;SDS011;44429;45.110;20.622;2022-09-23T06:28:29;6.18;;;1.73;;
58659;SDS011;44429;45.110;20.622;2022-09-23T06:30:59;5.18;;;1.80;;
58659;SDS011;44429;45.110;20.622;2022-09-23T06:33:27;5.68;;;1.80;;
58659;SDS011;44429;45.110;20.622;2022-09-23T06:35:56;3.67;;;1.15;;
58659;SDS011;44429;45.110;20.622;2022-09-23T06:38:23;3.60;;;1.42;;
58659;SDS011;44429;45.110;20.622;2022-09-23T06:40:50;6.63;;;2.17;;
58659;SDS011;44429;45.110;20.622;2022-09-23T06:43:16;2.67;;;0.80;;
58659;SDS011;44429;45.110;20.622;2022-09-23T06:45:43;5.40;;;1.63;;
58659;SDS011;44429;45.110;20.622;2022-09-23T06:48:09;3.67;;;0.98;;
58659;SDS011;44429;45.110;20.622;2022-09-23T06:50:35;4.75;;;1.63;;
58659;SDS011;44429;45.110;20.622;2022-09-23T06:53:01;5.53;;;1.88;;
58659;SDS011;44429;45.110;20.622;2022-09-23T06:55:28;3.03;;;1.05;;
58659;SDS011;44429;45.110;20.622;2022-09-23T06:57:56;6.22;;;2.40;;
58659;SDS011;44429;45.110;20.622;2022-09-23T07:00:23;6.20;;;1.92;;
58659;SDS011;44429;45.110;20.622;2022-09-23T07:02:49;5.40;;;1.77;;
58659;SDS011;44429;45.110;20.622;2022-09-23T07:05:15;5.45;;;2.20;;
58659;SDS011;44429;45.110;20.622;2022-09-23T07:07:42;4.32;;;1.30;;
58659;SDS011;44429;45.110;20.622;2022-09-23T07:10:09;3.90;;;1.45;;
58659;SDS011;44429;45.110;20.622;2022-09-23T07:12:35;4.57;;;1.65;;
58659;SDS011;44429;45.110;20.622;2022-09-23T07:15:01;5.97;;;1.70;;
58659;SDS011;44429;45.110;20.622;2022-09-23T07:17:28;5.55;;;1.92;;
58659;SDS011;44429;45.110;20.622;2022-09-23T07:19:54;12.88;;;1.92;;
58659;SDS011;44429;45.110;20.622;2022-09-23T07:22:21;4.43;;;1.63;;
58659;SDS011;44429;45.110;20.622;2022-09-23T07:24:48;5.32;;;2.08;;
58659;SDS011;44429;45.110;20.622;2022-09-23T07:27:15;5.93;;;1.90;;
58659;SDS011;44429;45.110;20.622;2022-09-23T07:29:43;4.30;;;1.48;;
58659;SDS011;44429;45.110;20.622;2022-09-23T07:32:09;5.15;;;1.73;;
58659;SDS011;44429;45.110;20.622;2022-09-23T07:34:37;7.82;;;2.42;;
58659;SDS011;44429;45.110;20.622;2022-09-23T07:37:03;4.18;;;1.55;;
58659;SDS011;44429;45.110;20.622;2022-09-23T07:39:29;6.82;;;1.65;;
58659;SDS011;44429;45.110;20.622;2022-09-23T07:41:55;5.20;;;1.23;;
58659;SDS011;44429;45.110;20.622;2022-09-23T07:44:21;3.17;;;1.30;;
58659;SDS011;44429;45.110;20.622;2022-09-23T07:46:49;5.97;;;1.42;;
58659;SDS011;44429;45.110;20.622;2022-09-23T07:49:15;6.43;;;2.70;;
58659;SDS011;44429;45.110;20.622;2022-09-23T07:51:42;4.45;;;1.77;;
58659;SDS011;44429;45.110;20.622;2022-09-23T07:54:11;5.45;;;2.15;;
58659;SDS011;44429;45.110;20.622;2022-09-23T07:56:37;5.15;;;1.58;;
58659;SDS011;44429;45.110;20.622;2022-09-23T07:59:04;7.05;;;1.98;;
58659;SDS011;44429;45.110;20.622;2022-09-23T08:01:33;4.78;;;1.70;;
58659;SDS011;44429;45.110;20.622;2022-09-23T08:04:04;4.63;;;1.30;;
58659;SDS011;44429;45.110;20.622;2022-09-23T08:06:31;5.00;;;1.48;;
58659;SDS011;44429;45.110;20.622;2022-09-23T08:08:58;5.65;;;1.70;;
58659;SDS011;44429;45.110;20.622;2022-09-23T08:11:25;5.32;;;1.83;;
58659;SDS011;44429;45.110;20.622;2022-09-23T08:13:51;4.97;;;1.30;;
58659;SDS011;44429;45.110;20.622;2022-09-23T08:16:18;5.10;;;1.50;;
58659;SDS011;44429;45.110;20.622;2022-09-23T08:18:44;4.47;;;1.20;;
58659;SDS011;44429;45.110;20.622;2022-09-23T08:21:10;5.68;;;1.70;;
58659;SDS011;44429;45.110;20.622;2022-09-23T08:23:37;5.60;;;1.73;;
58659;SDS011;44429;45.110;20.622;2022-09-23T08:26:04;4.72;;;1.70;;
58659;SDS011;44429;45.110;20.622;2022-09-23T08:28:31;4.97;;;1.23;;
58659;SDS011;44429;45.110;20.622;2022-09-23T08:30:58;6.53;;;2.05;;
58659;SDS011;44429;45.110;20.622;2022-09-23T08:33:24;4.40;;;1.38;;
58659;SDS011;44429;45.110;20.622;2022-09-23T08:35:51;5.43;;;1.60;;
58659;SDS011;44429;45.110;20.622;2022-09-23T08:38:17;5.20;;;1.40;;
58659;SDS011;44429;45.110;20.622;2022-09-23T08:40:45;6.28;;;1.65;;
58659;SDS011;44429;45.110;20.622;2022-09-23T08:43:26;4.22;;;1.17;;
58659;SDS011;44429;45.110;20.622;2022-09-23T08:45:53;5.15;;;1.33;;
58659;SDS011;44429;45.110;20.622;2022-09-23T08:48:23;5.63;;;1.45;;
58659;SDS011;44429;45.110;20.622;2022-09-23T08:50:54;4.03;;;1.13;;
58659;SDS011;44429;45.110;20.622;2022-09-23T08:53:24;4.72;;;1.40;;
58659;SDS011;44429;45.110;20.622;2022-09-23T08:55:51;4.38;;;1.38;;
58659;SDS011;44429;45.110;20.622;2022-09-23T09:01:12;3.95;;;1.05;;
58659;SDS011;44429;45.110;20.622;2022-09-23T09:03:47;4.32;;;1.30;;
58659;SDS011;44429;45.110;20.622;2022-09-23T09:06:37;4.35;;;1.10;;
58659;SDS011;44429;45.110;20.622;2022-09-23T09:09:02;3.42;;;1.05;;
58659;SDS011;44429;45.110;20.622;2022-09-23T09:11:33;3.78;;;1.00;;
58659;SDS011;44429;45.110;20.622;2022-09-23T09:17:18;3.47;;;0.83;;
58659;SDS011;44429;45.110;20.622;2022-09-23T09:19:53;3.85;;;1.00;;
58659;SDS011;44429;45.110;20.622;2022-09-23T09:22:32;3.57;;;0.83;;
58659;SDS011;44429;45.110;20.622;2022-09-23T09:25:04;3.85;;;0.85;;
58659;SDS011;44429;45.110;20.622;2022-09-23T09:27:34;5.10;;;1.17;;
58659;SDS011;44429;45.110;20.622;2022-09-23T09:30:03;3.35;;;0.90;;
58659;SDS011;44429;45.110;20.622;2022-09-23T09:32:44;3.42;;;0.88;;
58659;SDS011;44429;45.110;20.622;2022-09-23T09:37:59;3.63;;;0.93;;
58659;SDS011;44429;45.110;20.622;2022-09-23T09:40:25;3.13;;;0.80;;
58659;SDS011;44429;45.110;20.622;2022-09-23T09:42:51;2.22;;;0.75;;
58659;SDS011;44429;45.110;20.622;2022-09-23T09:50:18;3.25;;;1.08;;
58659;SDS011;44429;45.110;20.622;2022-09-23T09:55:57;4.53;;;0.85;;
58659;SDS011;44429;45.110;20.622;2022-09-23T09:58:24;3.17;;;0.80;;
58659;SDS011;44429;45.110;20.622;2022-09-23T10:00:52;3.45;;;0.85;;
58659;SDS011;44429;45.110;20.622;2022-09-23T10:03:21;3.38;;;0.75;;
58659;SDS011;44429;45.110;20.622;2022-09-23T10:05:50;3.03;;;0.80;;
58659;SDS011;44429;45.110;20.622;2022-09-23T10:08:35;1.27;;;0.40;;
58659;SDS011;44429;45.110;20.622;2022-09-23T10:11:02;2.78;;;0.60;;
58659;SDS011;44429;45.110;20.622;2022-09-23T10:13:29;2.47;;;0.68;;
58659;SDS011;44429;45.110;20.622;2022-09-23T10:15:59;3.35;;;0.90;;
58659;SDS011;44429;45.110;20.622;2022-09-23T10:18:49;2.05;;;0.73;;
58659;SDS011;44429;45.110;20.622;2022-09-23T10:21:15;2.85;;;0.95;;
58659;SDS011;44429;45.110;20.622;2022-09-23T10:23:51;3.30;;;0.80;;
58659;SDS011;44429;45.110;20.622;2022-09-23T10:29:21;2.47;;;0.60;;
58659;SDS011;44429;45.110;20.622;2022-09-23T10:31:48;3.53;;;0.77;;
58659;SDS011;44429;45.110;20.622;2022-09-23T10:34:26;3.25;;;0.88;;
58659;SDS011;44429;45.110;20.622;2022-09-23T10:37:06;2.90;;;0.77;;
58659;SDS011;44429;45.110;20.622;2022-09-23T10:39:34;2.70;;;0.75;;
58659;SDS011;44429;45.110;20.622;2022-09-23T10:42:29;2.47;;;0.60;;
58659;SDS011;44429;45.110;20.622;2022-09-23T10:45:17;2.75;;;0.88;;
58659;SDS011;44429;45.110;20.622;2022-09-23T10:50:49;2.53;;;0.70;;
58659;SDS011;44429;45.110;20.622;2022-09-23T10:53:37;2.42;;;1.00;;
58659;SDS011;44429;45.110;20.622;2022-09-23T10:59:14;2.28;;;0.50;;
58659;SDS011;44429;45.110;20.622;2022-09-23T11:02:08;3.25;;;0.70;;
58659;SDS011;44429;45.110;20.622;2022-09-23T11:15:02;1.20;;;0.40;;
58659;SDS011;44429;45.110;20.622;2022-09-23T11:17:44;1.20;;;0.40;;
58659;SDS011;44429;45.110;20.622;2022-09-23T11:35:56;2.58;;;0.77;;
58659;SDS011;44429;45.110;20.622;2022-09-23T11:38:27;3.25;;;0.80;;
58659;SDS011;44429;45.110;20.622;2022-09-23T11:40:59;1.98;;;0.57;;
58659;SDS011;44429;45.110;20.622;2022-09-23T11:43:27;2.38;;;0.68;;
58659;SDS011;44429;45.110;20.622;2022-09-23T11:48:29;1.25;;;0.40;;
58659;SDS011;44429;45.110;20.622;2022-09-23T11:50:57;2.20;;;0.40;;
58659;SDS011;44429;45.110;20.622;2022-09-23T11:55:52;1.33;;;0.35;;
58659;SDS011;44429;45.110;20.622;2022-09-23T11:58:21;1.27;;;0.40;;
58659;SDS011;44429;45.110;20.622;2022-09-23T12:01:08;2.83;;;0.50;;
58659;SDS011;44429;45.110;20.622;2022-09-23T12:06:19;1.40;;;0.47;;
58659;SDS011;44429;45.110;20.622;2022-09-23T12:08:48;2.05;;;0.45;;
58659;SDS011;44429;45.110;20.622;2022-09-23T12:14:02;1.48;;;0.38;;
58659;SDS011;44429;45.110;20.622;2022-09-23T12:24:44;1.38;;;0.40;;
58659;SDS011;44429;45.110;20.622;2022-09-23T12:27:13;1.23;;;0.35;;
58659;SDS011;44429;45.110;20.622;2022-09-23T12:29:52;1.08;;;0.30;;
58659;SDS011;44429;45.110;20.622;2022-09-23T12:32:19;2.25;;;0.50;;
58659;SDS011;44429;45.110;20.622;2022-09-23T12:34:45;1.60;;;0.40;;
58659;SDS011;44429;45.110;20.622;2022-09-23T12:37:12;0.85;;;0.30;;
58659;SDS011;44429;45.110;20.622;2022-09-23T12:39:47;1.20;;;0.40;;
58659;SDS011;44429;45.110;20.622;2022-09-23T12:42:14;2.30;;;0.55;;
58659;SDS011;44429;45.110;20.622;2022-09-23T12:44:42;3.55;;;0.63;;
58659;SDS011;44429;45.110;20.622;2022-09-23T12:49:45;2.20;;;0.68;;
58659;SDS011;44429;45.110;20.622;2022-09-23T12:52:13;1.50;;;0.40;;
58659;SDS011;44429;45.110;20.622;2022-09-23T12:54:49;1.33;;;0.50;;
58659;SDS011;44429;45.110;20.622;2022-09-23T13:02:40;1.45;;;0.50;;
58659;SDS011;44429;45.110;20.622;2022-09-23T13:07:56;1.75;;;0.70;;
58659;SDS011;44429;45.110;20.622;2022-09-23T13:12:49;1.95;;;0.50;;
58659;SDS011;44429;45.110;20.622;2022-09-23T13:15:30;1.95;;;0.90;;
58659;SDS011;44429;45.110;20.622;2022-09-23T13:18:21;3.15;;;0.65;;
58659;SDS011;44429;45.110;20.622;2022-09-23T13:20:43;1.85;;;0.57;;
58659;SDS011;44429;45.110;20.622;2022-09-23T13:23:24;1.48;;;0.40;;
58659;SDS011;44429;45.110;20.622;2022-09-23T13:25:51;1.02;;;0.40;;
58659;SDS011;44429;45.110;20.622;2022-09-23T13:28:41;1.65;;;0.50;;
58659;SDS011;44429;45.110;20.622;2022-09-23T13:31:05;0.88;;;0.30;;
58659;SDS011;44429;45.110;20.622;2022-09-23T13:36:01;1.10;;;0.35;;
58659;SDS011;44429;45.110;20.622;2022-09-23T13:38:28;0.77;;;0.38;;
58659;SDS011;44429;45.110;20.622;2022-09-23T13:41:17;2.45;;;0.70;;
58659;SDS011;44429;45.110;20.622;2022-09-23T13:43:44;0.57;;;0.25;;
58659;SDS011;44429;45.110;20.622;2022-09-23T13:46:15;3.55;;;0.73;;
58659;SDS011;44429;45.110;20.622;2022-09-23T13:48:42;1.48;;;0.38;;
58659;SDS011;44429;45.110;20.622;2022-09-23T13:51:10;2.80;;;0.80;;
58659;SDS011;44429;45.110;20.622;2022-09-23T13:53:36;2.03;;;0.40;;
58659;SDS011;44429;45.110;20.622;2022-09-23T13:58:29;2.20;;;0.77;;
58659;SDS011;44429;45.110;20.622;2022-09-23T14:00:56;1.63;;;0.40;;
58659;SDS011;44429;45.110;20.622;2022-09-23T14:05:49;0.55;;;0.30;;
58659;SDS011;44429;45.110;20.622;2022-09-23T14:08:16;2.72;;;0.80;;
58659;SDS011;44429;45.110;20.622;2022-09-23T14:10:43;1.50;;;0.40;;
58659;SDS011;44429;45.110;20.622;2022-09-23T14:13:18;1.25;;;0.38;;
58659;SDS011;44429;45.110;20.622;2022-09-23T14:15:45;2.80;;;0.70;;
58659;SDS011;44429;45.110;20.622;2022-09-23T14:18:26;2.13;;;0.70;;
58659;SDS011;44429;45.110;20.622;2022-09-23T14:20:53;1.48;;;0.40;;
58659;SDS011;44429;45.110;20.622;2022-09-23T14:23:19;2.70;;;0.73;;
58659;SDS011;44429;45.110;20.622;2022-09-23T14:25:45;2.50;;;0.70;;
58659;SDS011;44429;45.110;20.622;2022-09-23T14:28:15;2.67;;;0.70;;
58659;SDS011;44429;45.110;20.622;2022-09-23T14:30:42;4.35;;;0.80;;
58659;SDS011;44429;45.110;20.622;2022-09-23T14:33:17;3.70;;;1.00;;
58659;SDS011;44429;45.110;20.622;2022-09-23T14:35:47;4.22;;;1.50;;
58659;SDS011;44429;45.110;20.622;2022-09-23T14:38:22;2.10;;;0.60;;
58659;SDS011;44429;45.110;20.622;2022-09-23T14:41:21;2.70;;;0.80;;
58659;SDS011;44429;45.110;20.622;2022-09-23T14:43:49;2.22;;;0.70;;
58659;SDS011;44429;45.110;20.622;2022-09-23T14:46:17;3.67;;;0.98;;
58659;SDS011;44429;45.110;20.622;2022-09-23T14:48:49;2.53;;;0.77;;
58659;SDS011;44429;45.110;20.622;2022-09-23T14:51:16;2.05;;;0.55;;
58659;SDS011;44429;45.110;20.622;2022-09-23T14:53:43;3.55;;;0.88;;
58659;SDS011;44429;45.110;20.622;2022-09-23T14:56:19;2.13;;;0.65;;
58659;SDS011;44429;45.110;20.622;2022-09-23T14:58:58;2.72;;;0.80;;
58659;SDS011;44429;45.110;20.622;2022-09-23T15:06:38;3.35;;;0.93;;
58659;SDS011;44429;45.110;20.622;2022-09-23T15:09:05;5.88;;;1.65;;
58659;SDS011;44429;45.110;20.622;2022-09-23T15:11:32;5.93;;;1.50;;
58659;SDS011;44429;45.110;20.622;2022-09-23T15:14:00;4.82;;;1.58;;
58659;SDS011;44429;45.110;20.622;2022-09-23T15:16:27;6.75;;;1.20;;
58659;SDS011;44429;45.110;20.622;2022-09-23T15:18:54;3.03;;;1.00;;
58659;SDS011;44429;45.110;20.622;2022-09-23T15:21:20;3.97;;;0.93;;
58659;SDS011;44429;45.110;20.622;2022-09-23T15:23:48;2.63;;;0.88;;
58659;SDS011;44429;45.110;20.622;2022-09-23T15:26:15;1.98;;;0.70;;
58659;SDS011;44429;45.110;20.622;2022-09-23T15:28:42;2.20;;;0.60;;
58659;SDS011;44429;45.110;20.622;2022-09-23T15:31:12;4.30;;;0.98;;
58659;SDS011;44429;45.110;20.622;2022-09-23T15:33:39;3.17;;;0.90;;
58659;SDS011;44429;45.110;20.622;2022-09-23T15:36:08;2.75;;;0.70;;
58659;SDS011;44429;45.110;20.622;2022-09-23T15:38:40;3.08;;;0.73;;
58659;SDS011;44429;45.110;20.622;2022-09-23T15:41:07;2.55;;;0.65;;
58659;SDS011;44429;45.110;20.622;2022-09-23T15:43:33;2.72;;;0.80;;
58659;SDS011;44429;45.110;20.622;2022-09-23T15:46:03;1.95;;;0.50;;
58659;SDS011;44429;45.110;20.622;2022-09-23T15:48:30;3.75;;;0.85;;
58659;SDS011;44429;45.110;20.622;2022-09-23T15:51:04;2.92;;;0.70;;
58659;SDS011;44429;45.110;20.622;2022-09-23T15:53:31;2.67;;;0.80;;
58659;SDS011;44429;45.110;20.622;2022-09-23T15:55:57;3.30;;;0.80;;
58659;SDS011;44429;45.110;20.622;2022-09-23T15:58:24;3.00;;;1.00;;
58659;SDS011;44429;45.110;20.622;2022-09-23T16:00:50;4.10;;;0.93;;
58659;SDS011;44429;45.110;20.622;2022-09-23T16:03:18;2.58;;;0.80;;
58659;SDS011;44429;45.110;20.622;2022-09-23T16:05:46;2.03;;;0.55;;
58659;SDS011;44429;45.110;20.622;2022-09-23T16:08:12;2.65;;;0.80;;
58659;SDS011;44429;45.110;20.622;2022-09-23T16:10:39;1.63;;;0.50;;
58659;SDS011;44429;45.110;20.622;2022-09-23T16:13:08;3.20;;;1.02;;
58659;SDS011;44429;45.110;20.622;2022-09-23T16:15:35;3.70;;;0.77;;
58659;SDS011;44429;45.110;20.622;2022-09-23T16:18:03;6.25;;;1.35;;
58659;SDS011;44429;45.110;20.622;2022-09-23T16:20:30;4.63;;;1.40;;
58659;SDS011;44429;45.110;20.622;2022-09-23T16:22:59;4.72;;;1.40;;
58659;SDS011;44429;45.110;20.622;2022-09-23T16:25:27;4.30;;;1.17;;
58659;SDS011;44429;45.110;20.622;2022-09-23T16:27:57;4.97;;;1.45;;
58659;SDS011;44429;45.110;20.622;2022-09-23T16:30:24;5.07;;;1.05;;
58659;SDS011;44429;45.110;20.622;2022-09-23T16:32:50;4.95;;;1.02;;
58659;SDS011;44429;45.110;20.622;2022-09-23T16:35:20;8.18;;;1.40;;
58659;SDS011;44429;45.110;20.622;2022-09-23T16:37:46;4.82;;;1.33;;
58659;SDS011;44429;45.110;20.622;2022-09-23T16:40:13;5.05;;;1.30;;
58659;SDS011;44429;45.110;20.622;2022-09-23T16:42:42;5.80;;;1.80;;
58659;SDS011;44429;45.110;20.622;2022-09-23T16:45:11;4.32;;;1.27;;
58659;SDS011;44429;45.110;20.622;2022-09-23T16:47:41;5.28;;;1.88;;
58659;SDS011;44429;45.110;20.622;2022-09-23T16:50:09;4.55;;;1.13;;
58659;SDS011;44429;45.110;20.622;2022-09-23T16:52:35;6.10;;;1.30;;
58659;SDS011;44429;45.110;20.622;2022-09-23T16:55:02;5.20;;;1.60;;
58659;SDS011;44429;45.110;20.622;2022-09-23T16:57:28;3.17;;;1.10;;
58659;SDS011;44429;45.110;20.622;2022-09-23T16:59:54;5.88;;;1.38;;
58659;SDS011;44429;45.110;20.622;2022-09-23T17:02:39;5.60;;;1.80;;
58659;SDS011;44429;45.110;20.622;2022-09-23T17:05:24;6.38;;;1.42;;
58659;SDS011;44429;45.110;20.622;2022-09-23T17:07:51;7.28;;;1.48;;
58659;SDS011;44429;45.110;20.622;2022-09-23T17:10:18;7.68;;;1.92;;